sensor_id;sensor_type;location;lat;lon;timestamp;temperature;humidity
22249;DHT22;67538;52.180;5.646;2023-07-22T00:01:36;13.10;99.90
22249;DHT22;67538;52.180;5.646;2023-07-22T00:04:03;13.10;99.90
22249;DHT22;67538;52.180;5.646;2023-07-22T00:06:32;13.10;99.90
22249;DHT22;67538;52.180;5.646;2023-07-22T00:08:59;13.10;99.90
22249;DHT22;67538;52.180;5.646;2023-07-22T00:11:26;13.00;99.90
22249;DHT22;67538;52.180;5.646;2023-07-22T00:13:53;13.10;99.90
22249;DHT22;67538;52.180;5.646;2023-07-22T00:16:20;13.10;99.90
22249;DHT22;67538;52.180;5.646;2023-07-22T00:18:47;13.10;99.90
22249;DHT22;67538;52.180;5.646;2023-07-22T00:21:14;13.10;99.90
22249;DHT22;67538;52.180;5.646;2023-07-22T00:23:44;13.10;99.90
22249;DHT22;67538;52.180;5.646;2023-07-22T00:26:11;13.10;99.90
22249;DHT22;67538;52.180;5.646;2023-07-22T00:28:39;13.00;99.90
22249;DHT22;67538;52.180;5.646;2023-07-22T00:31:07;12.90;99.90
22249;DHT22;67538;52.180;5.646;2023-07-22T00:33:34;12.90;99.90
22249;DHT22;67538;52.180;5.646;2023-07-22T00:36:01;12.80;99.90
22249;DHT22;67538;52.180;5.646;2023-07-22T00:38:28;12.80;99.90
22249;DHT22;67538;52.180;5.646;2023-07-22T00:40:57;12.80;99.90
22249;DHT22;67538;52.180;5.646;2023-07-22T00:43:24;12.80;99.90
22249;DHT22;67538;52.180;5.646;2023-07-22T00:45:52;12.80;99.90
22249;DHT22;67538;52.180;5.646;2023-07-22T00:48:19;12.80;99.90
22249;DHT22;67538;52.180;5.646;2023-07-22T00:50:46;12.80;99.90
22249;DHT22;67538;52.180;5.646;2023-07-22T00:53:14;12.90;99.90
22249;DHT22;67538;52.180;5.646;2023-07-22T00:55:41;12.90;99.90
22249;DHT22;67538;52.180;5.646;2023-07-22T00:58:09;12.90;99.90
22249;DHT22;67538;52.180;5.646;2023-07-22T01:00:36;12.90;99.90
22249;DHT22;67538;52.180;5.646;2023-07-22T01:03:04;12.90;99.90
22249;DHT22;67538;52.180;5.646;2023-07-22T01:05:32;12.90;99.90
22249;DHT22;67538;52.180;5.646;2023-07-22T01:08:00;12.90;99.90
22249;DHT22;67538;52.180;5.646;2023-07-22T01:10:29;12.80;99.90
22249;DHT22;67538;52.180;5.646;2023-07-22T01:12:56;12.80;99.90
22249;DHT22;67538;52.180;5.646;2023-07-22T01:15:26;12.70;99.90
22249;DHT22;67538;52.180;5.646;2023-07-22T01:17:54;12.70;99.90
22249;DHT22;67538;52.180;5.646;2023-07-22T01:20:23;12.70;99.90
22249;DHT22;67538;52.180;5.646;2023-07-22T01:22:52;12.70;99.90
22249;DHT22;67538;52.180;5.646;2023-07-22T01:25:20;12.80;99.90
22249;DHT22;67538;52.180;5.646;2023-07-22T01:27:48;12.80;99.90
22249;DHT22;67538;52.180;5.646;2023-07-22T01:30:15;12.80;99.90
22249;DHT22;67538;52.180;5.646;2023-07-22T01:32:42;12.80;99.90
22249;DHT22;67538;52.180;5.646;2023-07-22T01:35:09;12.80;99.90
22249;DHT22;67538;52.180;5.646;2023-07-22T01:37:36;12.80;99.90
22249;DHT22;67538;52.180;5.646;2023-07-22T01:40:06;12.70;99.90
22249;DHT22;67538;52.180;5.646;2023-07-22T01:42:37;12.70;99.90
22249;DHT22;67538;52.180;5.646;2023-07-22T01:45:05;12.70;99.90
22249;DHT22;67538;52.180;5.646;2023-07-22T01:47:34;12.70;99.90
22249;DHT22;67538;52.180;5.646;2023-07-22T01:50:01;12.60;99.90
22249;DHT22;67538;52.180;5.646;2023-07-22T01:52:28;12.60;99.90
22249;DHT22;67538;52.180;5.646;2023-07-22T01:54:55;12.60;99.90
22249;DHT22;67538;52.180;5.646;2023-07-22T01:57:24;12.60;99.90
22249;DHT22;67538;52.180;5.646;2023-07-22T01:59:51;12.60;99.90
22249;DHT22;67538;52.180;5.646;2023-07-22T02:02:18;12.60;99.90
22249;DHT22;67538;52.180;5.646;2023-07-22T02:04:45;12.60;99.90
22249;DHT22;67538;52.180;5.646;2023-07-22T02:07:12;12.60;99.90
22249;DHT22;67538;52.180;5.646;2023-07-22T02:09:40;12.70;99.90
22249;DHT22;67538;52.180;5.646;2023-07-22T02:12:08;12.60;99.90
22249;DHT22;67538;52.180;5.646;2023-07-22T02:14:37;12.60;99.90
22249;DHT22;67538;52.180;5.646;2023-07-22T02:17:05;12.40;99.90
22249;DHT22;67538;52.180;5.646;2023-07-22T02:19:34;12.30;99.90
22249;DHT22;67538;52.180;5.646;2023-07-22T02:22:03;12.20;99.90
22249;DHT22;67538;52.180;5.646;2023-07-22T02:24:30;12.20;99.90
22249;DHT22;67538;52.180;5.646;2023-07-22T02:26:57;12.20;99.90
22249;DHT22;67538;52.180;5.646;2023-07-22T02:29:24;12.20;99.90
22249;DHT22;67538;52.180;5.646;2023-07-22T02:31:53;12.20;99.90
22249;DHT22;67538;52.180;5.646;2023-07-22T02:34:20;12.30;99.90
22249;DHT22;67538;52.180;5.646;2023-07-22T02:36:47;12.30;99.90
22249;DHT22;67538;52.180;5.646;2023-07-22T02:39:14;12.30;99.90
22249;DHT22;67538;52.180;5.646;2023-07-22T02:41:41;12.30;99.90
22249;DHT22;67538;52.180;5.646;2023-07-22T02:44:08;12.30;99.90
22249;DHT22;67538;52.180;5.646;2023-07-22T02:46:36;12.30;99.90
22249;DHT22;67538;52.180;5.646;2023-07-22T02:49:04;12.40;99.90
22249;DHT22;67538;52.180;5.646;2023-07-22T02:51:32;12.40;99.90
22249;DHT22;67538;52.180;5.646;2023-07-22T02:53:59;12.30;99.90
22249;DHT22;67538;52.180;5.646;2023-07-22T02:56:26;12.30;99.90
22249;DHT22;67538;52.180;5.646;2023-07-22T02:58:53;12.30;99.90
22249;DHT22;67538;52.180;5.646;2023-07-22T03:01:20;12.30;99.90
22249;DHT22;67538;52.180;5.646;2023-07-22T03:03:47;12.20;99.90
22249;DHT22;67538;52.180;5.646;2023-07-22T03:06:15;12.10;99.90
22249;DHT22;67538;52.180;5.646;2023-07-22T03:08:42;12.10;99.90
22249;DHT22;67538;52.180;5.646;2023-07-22T03:11:09;12.10;99.90
22249;DHT22;67538;52.180;5.646;2023-07-22T03:13:36;12.10;99.90
22249;DHT22;67538;52.180;5.646;2023-07-22T03:16:04;12.10;99.90
22249;DHT22;67538;52.180;5.646;2023-07-22T03:18:31;12.10;99.90
22249;DHT22;67538;52.180;5.646;2023-07-22T03:20:58;12.10;99.90
22249;DHT22;67538;52.180;5.646;2023-07-22T03:23:26;12.10;99.90
22249;DHT22;67538;52.180;5.646;2023-07-22T03:25:53;12.20;99.90
22249;DHT22;67538;52.180;5.646;2023-07-22T03:28:20;12.20;99.90
22249;DHT22;67538;52.180;5.646;2023-07-22T03:30:47;12.20;99.90
22249;DHT22;67538;52.180;5.646;2023-07-22T03:33:14;12.10;99.90
22249;DHT22;67538;52.180;5.646;2023-07-22T03:35:41;12.10;99.90
22249;DHT22;67538;52.180;5.646;2023-07-22T03:38:08;12.10;99.90
22249;DHT22;67538;52.180;5.646;2023-07-22T03:40:37;12.10;99.90
22249;DHT22;67538;52.180;5.646;2023-07-22T03:43:04;12.10;99.90
22249;DHT22;67538;52.180;5.646;2023-07-22T03:45:31;12.10;99.90
22249;DHT22;67538;52.180;5.646;2023-07-22T03:47:59;12.00;99.90
22249;DHT22;67538;52.180;5.646;2023-07-22T03:50:27;12.00;99.90
22249;DHT22;67538;52.180;5.646;2023-07-22T03:52:54;12.10;99.90
22249;DHT22;67538;52.180;5.646;2023-07-22T03:55:21;12.10;99.90
22249;DHT22;67538;52.180;5.646;2023-07-22T03:57:50;12.10;99.90
22249;DHT22;67538;52.180;5.646;2023-07-22T04:00:18;12.00;99.90
22249;DHT22;67538;52.180;5.646;2023-07-22T04:02:45;12.10;99.90
22249;DHT22;67538;52.180;5.646;2023-07-22T04:05:12;12.10;99.90
22249;DHT22;67538;52.180;5.646;2023-07-22T04:07:39;12.00;99.90
22249;DHT22;67538;52.180;5.646;2023-07-22T04:10:07;11.90;99.90
22249;DHT22;67538;52.180;5.646;2023-07-22T04:12:34;11.90;99.90
22249;DHT22;67538;52.180;5.646;2023-07-22T04:15:03;11.90;99.90
22249;DHT22;67538;52.180;5.646;2023-07-22T04:17:30;11.90;99.90
22249;DHT22;67538;52.180;5.646;2023-07-22T04:19:58;11.90;99.90
22249;DHT22;67538;52.180;5.646;2023-07-22T04:22:25;11.90;99.90
22249;DHT22;67538;52.180;5.646;2023-07-22T04:24:52;12.00;99.90
22249;DHT22;67538;52.180;5.646;2023-07-22T04:27:19;12.00;99.90
22249;DHT22;67538;52.180;5.646;2023-07-22T04:29:46;12.10;99.90
22249;DHT22;67538;52.180;5.646;2023-07-22T04:32:14;12.00;99.90
22249;DHT22;67538;52.180;5.646;2023-07-22T04:34:41;12.00;99.90
22249;DHT22;67538;52.180;5.646;2023-07-22T04:37:08;12.10;99.90
22249;DHT22;67538;52.180;5.646;2023-07-22T04:39:37;12.10;99.90
22249;DHT22;67538;52.180;5.646;2023-07-22T04:42:04;12.20;99.90
22249;DHT22;67538;52.180;5.646;2023-07-22T04:44:32;12.40;99.90
22249;DHT22;67538;52.180;5.646;2023-07-22T04:46:59;12.60;99.90
22249;DHT22;67538;52.180;5.646;2023-07-22T04:49:27;12.60;99.90
22249;DHT22;67538;52.180;5.646;2023-07-22T04:51:54;12.70;99.90
22249;DHT22;67538;52.180;5.646;2023-07-22T04:54:21;12.80;99.90
22249;DHT22;67538;52.180;5.646;2023-07-22T04:56:48;12.80;99.90
22249;DHT22;67538;52.180;5.646;2023-07-22T04:59:15;12.80;99.90
22249;DHT22;67538;52.180;5.646;2023-07-22T05:01:42;12.90;99.90
22249;DHT22;67538;52.180;5.646;2023-07-22T05:04:10;13.00;99.90
22249;DHT22;67538;52.180;5.646;2023-07-22T05:06:38;13.10;99.90
22249;DHT22;67538;52.180;5.646;2023-07-22T05:09:05;13.20;99.90
22249;DHT22;67538;52.180;5.646;2023-07-22T05:11:33;13.30;99.90
22249;DHT22;67538;52.180;5.646;2023-07-22T05:14:00;13.40;99.90
22249;DHT22;67538;52.180;5.646;2023-07-22T05:16:27;13.50;99.90
22249;DHT22;67538;52.180;5.646;2023-07-22T05:18:54;13.50;99.90
22249;DHT22;67538;52.180;5.646;2023-07-22T05:21:21;13.60;99.90
22249;DHT22;67538;52.180;5.646;2023-07-22T05:23:49;13.70;99.90
22249;DHT22;67538;52.180;5.646;2023-07-22T05:26:16;13.80;99.90
22249;DHT22;67538;52.180;5.646;2023-07-22T05:28:43;13.80;99.90
22249;DHT22;67538;52.180;5.646;2023-07-22T05:31:10;13.80;99.90
22249;DHT22;67538;52.180;5.646;2023-07-22T05:33:37;13.90;99.90
22249;DHT22;67538;52.180;5.646;2023-07-22T05:36:05;13.90;99.90
22249;DHT22;67538;52.180;5.646;2023-07-22T05:38:32;14.00;99.90
22249;DHT22;67538;52.180;5.646;2023-07-22T05:41:00;14.00;99.90
22249;DHT22;67538;52.180;5.646;2023-07-22T05:43:27;14.00;99.90
22249;DHT22;67538;52.180;5.646;2023-07-22T05:45:54;14.00;99.90
22249;DHT22;67538;52.180;5.646;2023-07-22T05:48:21;14.10;99.90
22249;DHT22;67538;52.180;5.646;2023-07-22T05:50:48;14.10;99.90
22249;DHT22;67538;52.180;5.646;2023-07-22T05:53:15;14.20;99.90
22249;DHT22;67538;52.180;5.646;2023-07-22T05:55:42;14.20;99.90
22249;DHT22;67538;52.180;5.646;2023-07-22T05:58:16;14.30;99.90
22249;DHT22;67538;52.180;5.646;2023-07-22T06:00:44;14.30;99.90
22249;DHT22;67538;52.180;5.646;2023-07-22T06:03:11;14.40;99.90
22249;DHT22;67538;52.180;5.646;2023-07-22T06:05:38;14.40;99.90
22249;DHT22;67538;52.180;5.646;2023-07-22T06:08:05;14.50;99.90
22249;DHT22;67538;52.180;5.646;2023-07-22T06:10:33;14.50;99.90
22249;DHT22;67538;52.180;5.646;2023-07-22T06:13:03;14.60;99.90
22249;DHT22;67538;52.180;5.646;2023-07-22T06:15:32;14.60;99.90
22249;DHT22;67538;52.180;5.646;2023-07-22T06:17:59;14.70;99.90
22249;DHT22;67538;52.180;5.646;2023-07-22T06:20:27;14.70;99.90
22249;DHT22;67538;52.180;5.646;2023-07-22T06:22:54;14.80;99.90
22249;DHT22;67538;52.180;5.646;2023-07-22T06:25:21;14.90;99.90
22249;DHT22;67538;52.180;5.646;2023-07-22T06:27:48;14.90;99.90
22249;DHT22;67538;52.180;5.646;2023-07-22T06:30:15;14.90;99.90
22249;DHT22;67538;52.180;5.646;2023-07-22T06:32:44;15.00;99.90
22249;DHT22;67538;52.180;5.646;2023-07-22T06:35:11;15.10;99.90
22249;DHT22;67538;52.180;5.646;2023-07-22T06:37:38;15.20;99.90
22249;DHT22;67538;52.180;5.646;2023-07-22T06:40:07;15.40;99.90
22249;DHT22;67538;52.180;5.646;2023-07-22T06:42:34;15.60;99.90
22249;DHT22;67538;52.180;5.646;2023-07-22T06:45:01;15.70;99.90
22249;DHT22;67538;52.180;5.646;2023-07-22T06:47:28;15.70;99.90
22249;DHT22;67538;52.180;5.646;2023-07-22T06:49:57;15.80;99.90
22249;DHT22;67538;52.180;5.646;2023-07-22T06:52:24;16.00;99.90
22249;DHT22;67538;52.180;5.646;2023-07-22T06:54:51;16.30;99.90
22249;DHT22;67538;52.180;5.646;2023-07-22T06:57:18;16.60;99.90
22249;DHT22;67538;52.180;5.646;2023-07-22T06:59:45;16.60;99.90
22249;DHT22;67538;52.180;5.646;2023-07-22T07:02:12;16.60;99.90
22249;DHT22;67538;52.180;5.646;2023-07-22T07:04:39;16.50;99.90
22249;DHT22;67538;52.180;5.646;2023-07-22T07:07:08;16.50;99.90
22249;DHT22;67538;52.180;5.646;2023-07-22T07:09:35;16.80;99.90
22249;DHT22;67538;52.180;5.646;2023-07-22T07:12:02;17.00;99.90
22249;DHT22;67538;52.180;5.646;2023-07-22T07:14:29;17.10;99.90
22249;DHT22;67538;52.180;5.646;2023-07-22T07:16:56;17.30;99.90
22249;DHT22;67538;52.180;5.646;2023-07-22T07:19:23;17.50;99.90
22249;DHT22;67538;52.180;5.646;2023-07-22T07:21:50;17.40;99.90
22249;DHT22;67538;52.180;5.646;2023-07-22T07:24:19;17.40;99.90
22249;DHT22;67538;52.180;5.646;2023-07-22T07:26:46;17.40;99.90
22249;DHT22;67538;52.180;5.646;2023-07-22T07:29:13;17.50;99.90
22249;DHT22;67538;52.180;5.646;2023-07-22T07:31:40;17.40;99.90
22249;DHT22;67538;52.180;5.646;2023-07-22T07:34:07;17.60;99.90
22249;DHT22;67538;52.180;5.646;2023-07-22T07:36:34;17.80;99.90
22249;DHT22;67538;52.180;5.646;2023-07-22T07:39:02;18.00;99.90
22249;DHT22;67538;52.180;5.646;2023-07-22T07:41:31;18.40;99.90
22249;DHT22;67538;52.180;5.646;2023-07-22T07:43:58;18.70;99.90
22249;DHT22;67538;52.180;5.646;2023-07-22T07:46:27;18.60;99.90
22249;DHT22;67538;52.180;5.646;2023-07-22T07:48:55;18.50;99.90
22249;DHT22;67538;52.180;5.646;2023-07-22T07:51:24;18.60;99.90
22249;DHT22;67538;52.180;5.646;2023-07-22T07:53:53;18.20;99.90
22249;DHT22;67538;52.180;5.646;2023-07-22T07:56:20;18.10;99.90
22249;DHT22;67538;52.180;5.646;2023-07-22T07:58:50;18.10;99.90
22249;DHT22;67538;52.180;5.646;2023-07-22T08:01:17;18.10;99.90
22249;DHT22;67538;52.180;5.646;2023-07-22T08:03:45;18.20;99.90
22249;DHT22;67538;52.180;5.646;2023-07-22T08:06:12;18.20;99.90
22249;DHT22;67538;52.180;5.646;2023-07-22T08:08:39;18.10;99.90
22249;DHT22;67538;52.180;5.646;2023-07-22T08:11:08;18.00;99.90
22249;DHT22;67538;52.180;5.646;2023-07-22T08:13:35;17.90;99.90
22249;DHT22;67538;52.180;5.646;2023-07-22T08:16:06;17.90;99.90
22249;DHT22;67538;52.180;5.646;2023-07-22T08:18:34;17.90;99.90
22249;DHT22;67538;52.180;5.646;2023-07-22T08:21:02;17.90;99.90
22249;DHT22;67538;52.180;5.646;2023-07-22T08:23:29;17.90;99.90
22249;DHT22;67538;52.180;5.646;2023-07-22T08:25:56;17.90;99.90
22249;DHT22;67538;52.180;5.646;2023-07-22T08:28:23;17.90;99.90
22249;DHT22;67538;52.180;5.646;2023-07-22T08:30:54;18.10;99.90
22249;DHT22;67538;52.180;5.646;2023-07-22T08:33:23;18.30;99.90
22249;DHT22;67538;52.180;5.646;2023-07-22T08:35:51;18.40;99.90
22249;DHT22;67538;52.180;5.646;2023-07-22T08:38:18;18.30;99.90
22249;DHT22;67538;52.180;5.646;2023-07-22T08:40:49;18.50;99.90
22249;DHT22;67538;52.180;5.646;2023-07-22T08:43:20;19.00;99.90
22249;DHT22;67538;52.180;5.646;2023-07-22T08:45:48;19.20;99.90
22249;DHT22;67538;52.180;5.646;2023-07-22T08:48:17;19.10;99.90
22249;DHT22;67538;52.180;5.646;2023-07-22T08:50:50;19.20;99.90
22249;DHT22;67538;52.180;5.646;2023-07-22T08:53:18;19.30;99.90
22249;DHT22;67538;52.180;5.646;2023-07-22T08:55:46;19.30;99.90
22249;DHT22;67538;52.180;5.646;2023-07-22T08:58:14;19.00;99.90
22249;DHT22;67538;52.180;5.646;2023-07-22T09:00:42;18.90;99.90
22249;DHT22;67538;52.180;5.646;2023-07-22T09:03:10;19.00;99.90
22249;DHT22;67538;52.180;5.646;2023-07-22T09:05:37;19.20;99.90
22249;DHT22;67538;52.180;5.646;2023-07-22T09:08:07;19.20;99.90
22249;DHT22;67538;52.180;5.646;2023-07-22T09:10:35;19.20;99.90
22249;DHT22;67538;52.180;5.646;2023-07-22T09:13:04;19.20;99.90
22249;DHT22;67538;52.180;5.646;2023-07-22T09:15:34;19.40;99.90
22249;DHT22;67538;52.180;5.646;2023-07-22T09:18:01;19.50;99.90
22249;DHT22;67538;52.180;5.646;2023-07-22T09:20:29;19.40;99.90
22249;DHT22;67538;52.180;5.646;2023-07-22T09:22:57;19.50;99.90
22249;DHT22;67538;52.180;5.646;2023-07-22T09:25:27;19.50;99.90
22249;DHT22;67538;52.180;5.646;2023-07-22T09:27:55;19.40;99.90
22249;DHT22;67538;52.180;5.646;2023-07-22T09:30:26;19.40;99.90
22249;DHT22;67538;52.180;5.646;2023-07-22T09:32:55;19.40;99.90
22249;DHT22;67538;52.180;5.646;2023-07-22T09:35:24;19.50;99.90
22249;DHT22;67538;52.180;5.646;2023-07-22T09:37:53;19.40;99.90
22249;DHT22;67538;52.180;5.646;2023-07-22T09:40:21;19.30;99.90
22249;DHT22;67538;52.180;5.646;2023-07-22T09:42:50;19.30;99.90
22249;DHT22;67538;52.180;5.646;2023-07-22T09:45:18;19.30;99.90
22249;DHT22;67538;52.180;5.646;2023-07-22T09:47:47;19.20;99.90
22249;DHT22;67538;52.180;5.646;2023-07-22T09:50:16;19.20;99.90
22249;DHT22;67538;52.180;5.646;2023-07-22T09:52:45;19.20;99.90
22249;DHT22;67538;52.180;5.646;2023-07-22T09:55:14;19.30;99.90
22249;DHT22;67538;52.180;5.646;2023-07-22T09:57:44;19.20;99.90
22249;DHT22;67538;52.180;5.646;2023-07-22T10:00:14;19.10;99.90
22249;DHT22;67538;52.180;5.646;2023-07-22T10:02:42;19.10;99.90
22249;DHT22;67538;52.180;5.646;2023-07-22T10:05:12;19.20;99.90
22249;DHT22;67538;52.180;5.646;2023-07-22T10:07:44;19.20;99.90
22249;DHT22;67538;52.180;5.646;2023-07-22T10:10:13;19.20;99.90
22249;DHT22;67538;52.180;5.646;2023-07-22T10:12:42;19.10;99.90
22249;DHT22;67538;52.180;5.646;2023-07-22T10:15:10;19.00;99.90
22249;DHT22;67538;52.180;5.646;2023-07-22T10:17:39;19.00;99.90
22249;DHT22;67538;52.180;5.646;2023-07-22T10:20:07;18.80;99.90
22249;DHT22;67538;52.180;5.646;2023-07-22T10:22:36;18.90;99.90
22249;DHT22;67538;52.180;5.646;2023-07-22T10:25:07;19.00;99.90
22249;DHT22;67538;52.180;5.646;2023-07-22T10:27:34;19.00;99.90
22249;DHT22;67538;52.180;5.646;2023-07-22T10:30:06;19.00;99.90
22249;DHT22;67538;52.180;5.646;2023-07-22T10:32:34;19.00;99.90
22249;DHT22;67538;52.180;5.646;2023-07-22T10:35:04;19.00;99.90
22249;DHT22;67538;52.180;5.646;2023-07-22T10:37:32;19.10;99.90
22249;DHT22;67538;52.180;5.646;2023-07-22T10:40:00;19.20;99.90
22249;DHT22;67538;52.180;5.646;2023-07-22T10:42:31;19.30;99.90
22249;DHT22;67538;52.180;5.646;2023-07-22T10:45:00;19.50;99.90
22249;DHT22;67538;52.180;5.646;2023-07-22T10:47:32;19.40;99.90
22249;DHT22;67538;52.180;5.646;2023-07-22T10:50:07;19.40;99.90
22249;DHT22;67538;52.180;5.646;2023-07-22T10:52:40;19.40;99.90
22249;DHT22;67538;52.180;5.646;2023-07-22T10:55:15;19.50;99.90
22249;DHT22;67538;52.180;5.646;2023-07-22T10:57:48;19.40;99.90
22249;DHT22;67538;52.180;5.646;2023-07-22T11:00:19;19.50;99.90
22249;DHT22;67538;52.180;5.646;2023-07-22T11:05:49;19.30;99.90
22249;DHT22;67538;52.180;5.646;2023-07-22T11:08:36;19.20;99.90
22249;DHT22;67538;52.180;5.646;2023-07-22T11:11:03;19.20;99.90
22249;DHT22;67538;52.180;5.646;2023-07-22T11:13:37;19.20;99.90
22249;DHT22;67538;52.180;5.646;2023-07-22T11:16:04;19.20;99.90
22249;DHT22;67538;52.180;5.646;2023-07-22T11:18:38;19.10;99.90
22249;DHT22;67538;52.180;5.646;2023-07-22T11:21:10;19.00;99.90
22249;DHT22;67538;52.180;5.646;2023-07-22T11:23:37;18.70;99.90
22249;DHT22;67538;52.180;5.646;2023-07-22T11:26:04;18.40;99.90
22249;DHT22;67538;52.180;5.646;2023-07-22T11:28:31;18.10;99.90
22249;DHT22;67538;52.180;5.646;2023-07-22T11:30:58;17.90;99.90
22249;DHT22;67538;52.180;5.646;2023-07-22T11:33:36;17.70;99.90
22249;DHT22;67538;52.180;5.646;2023-07-22T11:36:04;17.50;99.90
22249;DHT22;67538;52.180;5.646;2023-07-22T11:38:33;17.50;99.90
22249;DHT22;67538;52.180;5.646;2023-07-22T11:41:01;17.40;99.90
22249;DHT22;67538;52.180;5.646;2023-07-22T11:43:28;17.50;99.90
22249;DHT22;67538;52.180;5.646;2023-07-22T11:45:55;17.60;99.90
22249;DHT22;67538;52.180;5.646;2023-07-22T11:48:22;17.60;99.90
22249;DHT22;67538;52.180;5.646;2023-07-22T11:50:49;17.70;99.90
22249;DHT22;67538;52.180;5.646;2023-07-22T11:53:16;17.90;99.90
22249;DHT22;67538;52.180;5.646;2023-07-22T11:55:45;18.00;99.90
22249;DHT22;67538;52.180;5.646;2023-07-22T11:58:12;18.10;99.90
22249;DHT22;67538;52.180;5.646;2023-07-22T12:00:42;18.20;99.90
22249;DHT22;67538;52.180;5.646;2023-07-22T12:03:10;18.40;99.90
22249;DHT22;67538;52.180;5.646;2023-07-22T12:05:37;18.50;99.90
22249;DHT22;67538;52.180;5.646;2023-07-22T12:08:04;18.70;99.90
22249;DHT22;67538;52.180;5.646;2023-07-22T12:10:32;18.90;99.90
22249;DHT22;67538;52.180;5.646;2023-07-22T12:13:02;19.10;99.90
22249;DHT22;67538;52.180;5.646;2023-07-22T12:15:29;19.20;99.90
22249;DHT22;67538;52.180;5.646;2023-07-22T12:17:58;19.20;99.90
22249;DHT22;67538;52.180;5.646;2023-07-22T12:20:26;19.10;99.90
22249;DHT22;67538;52.180;5.646;2023-07-22T12:22:54;18.80;99.90
22249;DHT22;67538;52.180;5.646;2023-07-22T12:25:22;18.60;99.90
22249;DHT22;67538;52.180;5.646;2023-07-22T12:27:49;18.30;99.90
22249;DHT22;67538;52.180;5.646;2023-07-22T12:30:18;18.00;99.90
22249;DHT22;67538;52.180;5.646;2023-07-22T12:32:45;17.80;99.90
22249;DHT22;67538;52.180;5.646;2023-07-22T12:35:12;17.60;99.90
22249;DHT22;67538;52.180;5.646;2023-07-22T12:37:40;17.60;99.90
22249;DHT22;67538;52.180;5.646;2023-07-22T12:40:08;17.60;99.90
22249;DHT22;67538;52.180;5.646;2023-07-22T12:42:36;17.50;99.90
22249;DHT22;67538;52.180;5.646;2023-07-22T12:45:04;17.50;99.90
22249;DHT22;67538;52.180;5.646;2023-07-22T12:47:32;17.40;99.90
22249;DHT22;67538;52.180;5.646;2023-07-22T12:49:59;17.30;99.90
22249;DHT22;67538;52.180;5.646;2023-07-22T12:52:26;17.20;99.90
22249;DHT22;67538;52.180;5.646;2023-07-22T12:54:53;17.10;99.90
22249;DHT22;67538;52.180;5.646;2023-07-22T12:57:21;17.00;99.90
22249;DHT22;67538;52.180;5.646;2023-07-22T12:59:48;17.00;99.90
22249;DHT22;67538;52.180;5.646;2023-07-22T13:02:15;16.90;99.90
22249;DHT22;67538;52.180;5.646;2023-07-22T13:04:44;16.90;99.90
22249;DHT22;67538;52.180;5.646;2023-07-22T13:07:11;16.90;99.90
22249;DHT22;67538;52.180;5.646;2023-07-22T13:09:38;16.90;99.90
22249;DHT22;67538;52.180;5.646;2023-07-22T13:12:06;16.90;99.90
22249;DHT22;67538;52.180;5.646;2023-07-22T13:14:33;16.90;99.90
22249;DHT22;67538;52.180;5.646;2023-07-22T13:17:00;16.90;99.90
22249;DHT22;67538;52.180;5.646;2023-07-22T13:19:27;17.00;99.90
22249;DHT22;67538;52.180;5.646;2023-07-22T13:21:56;17.10;99.90
22249;DHT22;67538;52.180;5.646;2023-07-22T13:24:23;17.20;99.90
22249;DHT22;67538;52.180;5.646;2023-07-22T13:26:50;17.30;99.90
22249;DHT22;67538;52.180;5.646;2023-07-22T13:29:17;17.40;99.90
22249;DHT22;67538;52.180;5.646;2023-07-22T13:31:44;17.40;99.90
22249;DHT22;67538;52.180;5.646;2023-07-22T13:34:11;17.50;99.90
22249;DHT22;67538;52.180;5.646;2023-07-22T13:36:38;17.40;99.90
22249;DHT22;67538;52.180;5.646;2023-07-22T13:39:06;17.40;99.90
22249;DHT22;67538;52.180;5.646;2023-07-22T13:41:33;17.40;99.90
22249;DHT22;67538;52.180;5.646;2023-07-22T13:44:00;17.30;99.90
22249;DHT22;67538;52.180;5.646;2023-07-22T13:46:28;17.30;99.90
22249;DHT22;67538;52.180;5.646;2023-07-22T13:48:55;17.20;99.90
22249;DHT22;67538;52.180;5.646;2023-07-22T13:51:22;17.20;99.90
22249;DHT22;67538;52.180;5.646;2023-07-22T13:53:49;17.10;99.90
22249;DHT22;67538;52.180;5.646;2023-07-22T13:56:19;17.10;99.90
22249;DHT22;67538;52.180;5.646;2023-07-22T13:58:46;17.10;99.90
22249;DHT22;67538;52.180;5.646;2023-07-22T14:01:13;17.10;99.90
22249;DHT22;67538;52.180;5.646;2023-07-22T14:03:40;17.20;99.90
22249;DHT22;67538;52.180;5.646;2023-07-22T14:06:07;17.10;99.90
22249;DHT22;67538;52.180;5.646;2023-07-22T14:08:34;17.20;99.90
22249;DHT22;67538;52.180;5.646;2023-07-22T14:11:01;17.20;99.90
22249;DHT22;67538;52.180;5.646;2023-07-22T14:13:30;17.20;99.90
22249;DHT22;67538;52.180;5.646;2023-07-22T14:15:57;17.20;99.90
22249;DHT22;67538;52.180;5.646;2023-07-22T14:18:23;17.10;99.90
22249;DHT22;67538;52.180;5.646;2023-07-22T14:20:50;17.10;99.90
22249;DHT22;67538;52.180;5.646;2023-07-22T14:23:17;17.20;99.90
22249;DHT22;67538;52.180;5.646;2023-07-22T14:25:44;17.20;99.90
22249;DHT22;67538;52.180;5.646;2023-07-22T14:28:11;17.20;99.90
22249;DHT22;67538;52.180;5.646;2023-07-22T14:30:40;17.30;99.90
22249;DHT22;67538;52.180;5.646;2023-07-22T14:33:07;17.20;99.90
22249;DHT22;67538;52.180;5.646;2023-07-22T14:35:34;17.20;99.90
22249;DHT22;67538;52.180;5.646;2023-07-22T14:38:01;17.30;99.90
22249;DHT22;67538;52.180;5.646;2023-07-22T14:40:29;17.40;99.90
22249;DHT22;67538;52.180;5.646;2023-07-22T14:42:56;17.40;99.90
22249;DHT22;67538;52.180;5.646;2023-07-22T14:45:23;17.40;99.90
22249;DHT22;67538;52.180;5.646;2023-07-22T14:47:51;17.50;99.90
22249;DHT22;67538;52.180;5.646;2023-07-22T14:50:18;17.60;99.90
22249;DHT22;67538;52.180;5.646;2023-07-22T14:52:45;17.60;99.90
22249;DHT22;67538;52.180;5.646;2023-07-22T14:55:12;17.70;99.90
22249;DHT22;67538;52.180;5.646;2023-07-22T14:57:40;17.70;99.90
22249;DHT22;67538;52.180;5.646;2023-07-22T15:00:07;17.70;99.90
22249;DHT22;67538;52.180;5.646;2023-07-22T15:02:36;17.80;99.90
22249;DHT22;67538;52.180;5.646;2023-07-22T15:05:04;17.80;99.90
22249;DHT22;67538;52.180;5.646;2023-07-22T15:07:32;17.80;99.90
22249;DHT22;67538;52.180;5.646;2023-07-22T15:09:59;17.80;99.90
22249;DHT22;67538;52.180;5.646;2023-07-22T15:12:25;17.80;99.90
22249;DHT22;67538;52.180;5.646;2023-07-22T15:14:53;17.80;99.90
22249;DHT22;67538;52.180;5.646;2023-07-22T15:17:20;17.80;99.90
22249;DHT22;67538;52.180;5.646;2023-07-22T15:19:47;17.90;99.90
22249;DHT22;67538;52.180;5.646;2023-07-22T15:22:17;17.90;99.90
22249;DHT22;67538;52.180;5.646;2023-07-22T15:24:45;17.90;99.90
22249;DHT22;67538;52.180;5.646;2023-07-22T15:27:12;17.90;99.90
22249;DHT22;67538;52.180;5.646;2023-07-22T15:29:39;18.00;99.90
22249;DHT22;67538;52.180;5.646;2023-07-22T15:32:07;17.90;99.90
22249;DHT22;67538;52.180;5.646;2023-07-22T15:34:34;17.80;99.90
22249;DHT22;67538;52.180;5.646;2023-07-22T15:37:01;17.80;99.90